sensor_id;sensor_type;location;lat;lon;timestamp;P1;durP1;ratioP1;P2;durP2;ratioP2
5819;SDS011;2936;47.348;9.640;2023-05-10T00:02:11;3.20;;;3.10;;
5819;SDS011;2936;47.348;9.640;2023-05-10T00:04:39;2.90;;;2.70;;
5819;SDS011;2936;47.348;9.640;2023-05-10T00:07:31;2.83;;;2.70;;
5819;SDS011;2936;47.348;9.640;2023-05-10T00:10:26;2.43;;;2.33;;
5819;SDS011;2936;47.348;9.640;2023-05-10T00:12:58;3.55;;;3.05;;
5819;SDS011;2936;47.348;9.640;2023-05-10T00:36:53;3.53;;;2.40;;
5819;SDS011;2936;47.348;9.640;2023-05-10T00:39:21;2.50;;;2.10;;
5819;SDS011;2936;47.348;9.640;2023-05-10T00:41:48;2.92;;;2.65;;
5819;SDS011;2936;47.348;9.640;2023-05-10T00:44:16;3.20;;;3.10;;
5819;SDS011;2936;47.348;9.640;2023-05-10T00:46:43;3.40;;;3.20;;
5819;SDS011;2936;47.348;9.640;2023-05-10T00:49:11;3.33;;;3.17;;
5819;SDS011;2936;47.348;9.640;2023-05-10T00:51:39;2.20;;;2.10;;
5819;SDS011;2936;47.348;9.640;2023-05-10T00:54:09;3.47;;;3.25;;
5819;SDS011;2936;47.348;9.640;2023-05-10T00:56:37;1.77;;;1.67;;
5819;SDS011;2936;47.348;9.640;2023-05-10T00:59:04;2.00;;;1.80;;
5819;SDS011;2936;47.348;9.640;2023-05-10T01:01:31;1.90;;;1.80;;
5819;SDS011;2936;47.348;9.640;2023-05-10T01:03:59;3.75;;;2.00;;
5819;SDS011;2936;47.348;9.640;2023-05-10T01:06:27;2.22;;;2.05;;
5819;SDS011;2936;47.348;9.640;2023-05-10T01:08:54;1.75;;;1.30;;
5819;SDS011;2936;47.348;9.640;2023-05-10T01:11:23;1.80;;;1.70;;
5819;SDS011;2936;47.348;9.640;2023-05-10T01:13:52;7.87;;;1.50;;
5819;SDS011;2936;47.348;9.640;2023-05-10T01:16:22;1.60;;;1.50;;
5819;SDS011;2936;47.348;9.640;2023-05-10T01:18:50;1.58;;;1.50;;
5819;SDS011;2936;47.348;9.640;2023-05-10T01:21:20;2.30;;;1.73;;
5819;SDS011;2936;47.348;9.640;2023-05-10T01:26:37;2.70;;;1.65;;
5819;SDS011;2936;47.348;9.640;2023-05-10T01:34:42;1.42;;;1.42;;
5819;SDS011;2936;47.348;9.640;2023-05-10T01:37:13;1.60;;;1.60;;
5819;SDS011;2936;47.348;9.640;2023-05-10T01:39:43;1.40;;;1.40;;
5819;SDS011;2936;47.348;9.640;2023-05-10T01:42:14;1.40;;;1.40;;
5819;SDS011;2936;47.348;9.640;2023-05-10T01:44:45;1.50;;;1.50;;
5819;SDS011;2936;47.348;9.640;2023-05-10T01:47:14;1.50;;;1.50;;
5819;SDS011;2936;47.348;9.640;2023-05-10T01:49:45;4.35;;;1.35;;
5819;SDS011;2936;47.348;9.640;2023-05-10T01:52:15;1.60;;;1.50;;
5819;SDS011;2936;47.348;9.640;2023-05-10T01:54:48;1.30;;;1.30;;
5819;SDS011;2936;47.348;9.640;2023-05-10T01:57:16;1.45;;;1.23;;
5819;SDS011;2936;47.348;9.640;2023-05-10T01:59:45;1.40;;;1.40;;
5819;SDS011;2936;47.348;9.640;2023-05-10T02:02:17;1.60;;;1.50;;
5819;SDS011;2936;47.348;9.640;2023-05-10T02:04:47;1.40;;;1.40;;
5819;SDS011;2936;47.348;9.640;2023-05-10T02:07:14;1.50;;;1.50;;
5819;SDS011;2936;47.348;9.640;2023-05-10T02:09:42;1.40;;;1.40;;
5819;SDS011;2936;47.348;9.640;2023-05-10T02:12:12;1.77;;;1.67;;
5819;SDS011;2936;47.348;9.640;2023-05-10T02:14:40;1.70;;;1.60;;
5819;SDS011;2936;47.348;9.640;2023-05-10T02:17:08;1.40;;;1.40;;
5819;SDS011;2936;47.348;9.640;2023-05-10T02:19:37;1.45;;;1.45;;
5819;SDS011;2936;47.348;9.640;2023-05-10T02:22:06;1.40;;;1.40;;
5819;SDS011;2936;47.348;9.640;2023-05-10T02:24:35;1.88;;;1.77;;
5819;SDS011;2936;47.348;9.640;2023-05-10T02:27:03;1.55;;;1.42;;
5819;SDS011;2936;47.348;9.640;2023-05-10T02:29:31;1.50;;;1.50;;
5819;SDS011;2936;47.348;9.640;2023-05-10T02:31:59;1.58;;;1.50;;
5819;SDS011;2936;47.348;9.640;2023-05-10T02:34:27;1.67;;;1.58;;
5819;SDS011;2936;47.348;9.640;2023-05-10T02:36:55;1.50;;;1.50;;
5819;SDS011;2936;47.348;9.640;2023-05-10T02:39:24;1.20;;;1.20;;
5819;SDS011;2936;47.348;9.640;2023-05-10T02:41:53;1.77;;;1.67;;
5819;SDS011;2936;47.348;9.640;2023-05-10T02:44:21;2.13;;;1.55;;
5819;SDS011;2936;47.348;9.640;2023-05-10T02:46:50;2.05;;;1.60;;
5819;SDS011;2936;47.348;9.640;2023-05-10T02:49:17;1.80;;;1.60;;
5819;SDS011;2936;47.348;9.640;2023-05-10T02:51:47;5.13;;;1.83;;
5819;SDS011;2936;47.348;9.640;2023-05-10T02:54:20;2.67;;;1.50;;
5819;SDS011;2936;47.348;9.640;2023-05-10T02:56:50;1.50;;;1.40;;
5819;SDS011;2936;47.348;9.640;2023-05-10T02:59:18;1.50;;;1.50;;
5819;SDS011;2936;47.348;9.640;2023-05-10T03:01:45;1.40;;;1.40;;
5819;SDS011;2936;47.348;9.640;2023-05-10T03:04:13;1.50;;;1.50;;
5819;SDS011;2936;47.348;9.640;2023-05-10T03:06:40;5.05;;;1.60;;
5819;SDS011;2936;47.348;9.640;2023-05-10T03:09:08;1.40;;;1.40;;
5819;SDS011;2936;47.348;9.640;2023-05-10T03:11:40;1.63;;;1.52;;
5819;SDS011;2936;47.348;9.640;2023-05-10T03:14:13;1.80;;;1.70;;
5819;SDS011;2936;47.348;9.640;2023-05-10T03:16:45;1.65;;;1.65;;
5819;SDS011;2936;47.348;9.640;2023-05-10T03:19:16;1.60;;;1.55;;
5819;SDS011;2936;47.348;9.640;2023-05-10T03:21:46;1.80;;;1.70;;
5819;SDS011;2936;47.348;9.640;2023-05-10T03:24:14;1.65;;;1.63;;
5819;SDS011;2936;47.348;9.640;2023-05-10T03:26:43;1.42;;;1.42;;
5819;SDS011;2936;47.348;9.640;2023-05-10T03:29:12;2.25;;;1.40;;
5819;SDS011;2936;47.348;9.640;2023-05-10T03:31:41;1.73;;;1.58;;
5819;SDS011;2936;47.348;9.640;2023-05-10T03:34:08;1.70;;;1.60;;
5819;SDS011;2936;47.348;9.640;2023-05-10T03:36:36;1.60;;;1.50;;
5819;SDS011;2936;47.348;9.640;2023-05-10T03:39:03;1.70;;;1.60;;
5819;SDS011;2936;47.348;9.640;2023-05-10T03:41:31;1.60;;;1.50;;
5819;SDS011;2936;47.348;9.640;2023-05-10T03:43:58;1.65;;;1.55;;
5819;SDS011;2936;47.348;9.640;2023-05-10T03:46:27;1.70;;;1.70;;
5819;SDS011;2936;47.348;9.640;2023-05-10T03:48:55;1.50;;;1.50;;
5819;SDS011;2936;47.348;9.640;2023-05-10T03:51:22;1.70;;;1.60;;
5819;SDS011;2936;47.348;9.640;2023-05-10T03:53:53;1.70;;;1.70;;
5819;SDS011;2936;47.348;9.640;2023-05-10T03:56:20;1.40;;;1.40;;
5819;SDS011;2936;47.348;9.640;2023-05-10T03:58:48;1.90;;;1.80;;
5819;SDS011;2936;47.348;9.640;2023-05-10T04:01:15;1.67;;;1.67;;
5819;SDS011;2936;47.348;9.640;2023-05-10T04:03:44;2.33;;;2.13;;
5819;SDS011;2936;47.348;9.640;2023-05-10T04:06:12;1.80;;;1.70;;
5819;SDS011;2936;47.348;9.640;2023-05-10T04:08:39;2.88;;;1.70;;
5819;SDS011;2936;47.348;9.640;2023-05-10T04:11:07;2.10;;;1.60;;
5819;SDS011;2936;47.348;9.640;2023-05-10T04:13:35;2.65;;;1.90;;
5819;SDS011;2936;47.348;9.640;2023-05-10T04:16:03;2.10;;;2.00;;
5819;SDS011;2936;47.348;9.640;2023-05-10T04:18:31;1.88;;;1.77;;
5819;SDS011;2936;47.348;9.640;2023-05-10T04:21:02;4.25;;;1.70;;
5819;SDS011;2936;47.348;9.640;2023-05-10T04:23:29;1.55;;;1.50;;
5819;SDS011;2936;47.348;9.640;2023-05-10T04:25:59;1.75;;;1.65;;
5819;SDS011;2936;47.348;9.640;2023-05-10T04:28:27;1.80;;;1.70;;
5819;SDS011;2936;47.348;9.640;2023-05-10T04:31:00;1.83;;;1.77;;
5819;SDS011;2936;47.348;9.640;2023-05-10T04:33:27;1.90;;;1.80;;
5819;SDS011;2936;47.348;9.640;2023-05-10T04:35:55;2.13;;;2.03;;
5819;SDS011;2936;47.348;9.640;2023-05-10T04:38:25;2.38;;;2.28;;
5819;SDS011;2936;47.348;9.640;2023-05-10T04:40:53;2.88;;;2.63;;
5819;SDS011;2936;47.348;9.640;2023-05-10T04:43:21;2.70;;;2.20;;
5819;SDS011;2936;47.348;9.640;2023-05-10T04:45:48;3.10;;;2.60;;
5819;SDS011;2936;47.348;9.640;2023-05-10T04:48:16;2.47;;;2.05;;
5819;SDS011;2936;47.348;9.640;2023-05-10T04:50:44;2.20;;;2.10;;
5819;SDS011;2936;47.348;9.640;2023-05-10T04:53:11;3.35;;;3.05;;
5819;SDS011;2936;47.348;9.640;2023-05-10T04:55:40;2.50;;;2.40;;
5819;SDS011;2936;47.348;9.640;2023-05-10T04:58:07;6.65;;;2.13;;
5819;SDS011;2936;47.348;9.640;2023-05-10T05:00:35;2.95;;;2.53;;
5819;SDS011;2936;47.348;9.640;2023-05-10T05:03:03;2.33;;;2.22;;
5819;SDS011;2936;47.348;9.640;2023-05-10T05:05:31;3.75;;;2.35;;
5819;SDS011;2936;47.348;9.640;2023-05-10T05:08:01;8.63;;;2.65;;
5819;SDS011;2936;47.348;9.640;2023-05-10T05:10:28;2.40;;;2.20;;
5819;SDS011;2936;47.348;9.640;2023-05-10T05:12:57;2.60;;;2.40;;
5819;SDS011;2936;47.348;9.640;2023-05-10T05:15:25;2.13;;;2.00;;
5819;SDS011;2936;47.348;9.640;2023-05-10T05:17:52;3.58;;;2.30;;
5819;SDS011;2936;47.348;9.640;2023-05-10T05:20:20;2.42;;;2.22;;
5819;SDS011;2936;47.348;9.640;2023-05-10T05:22:47;8.38;;;2.70;;
5819;SDS011;2936;47.348;9.640;2023-05-10T05:25:15;2.67;;;2.58;;
5819;SDS011;2936;47.348;9.640;2023-05-10T05:27:42;2.40;;;2.20;;
5819;SDS011;2936;47.348;9.640;2023-05-10T05:30:12;4.32;;;2.45;;
5819;SDS011;2936;47.348;9.640;2023-05-10T05:32:39;3.35;;;2.30;;
5819;SDS011;2936;47.348;9.640;2023-05-10T05:35:07;2.78;;;2.30;;
5819;SDS011;2936;47.348;9.640;2023-05-10T05:37:35;3.10;;;2.30;;
5819;SDS011;2936;47.348;9.640;2023-05-10T05:40:02;2.53;;;2.42;;
5819;SDS011;2936;47.348;9.640;2023-05-10T05:42:30;4.22;;;2.75;;
5819;SDS011;2936;47.348;9.640;2023-05-10T05:44:58;7.88;;;1.95;;
5819;SDS011;2936;47.348;9.640;2023-05-10T05:47:27;2.30;;;2.10;;
5819;SDS011;2936;47.348;9.640;2023-05-10T05:49:54;4.15;;;2.40;;
5819;SDS011;2936;47.348;9.640;2023-05-10T05:52:22;3.10;;;2.40;;
5819;SDS011;2936;47.348;9.640;2023-05-10T05:54:49;2.45;;;2.10;;
5819;SDS011;2936;47.348;9.640;2023-05-10T05:57:17;4.30;;;2.40;;
5819;SDS011;2936;47.348;9.640;2023-05-10T05:59:44;5.50;;;2.10;;
5819;SDS011;2936;47.348;9.640;2023-05-10T06:02:12;6.50;;;2.10;;
5819;SDS011;2936;47.348;9.640;2023-05-10T06:04:40;2.10;;;2.00;;
5819;SDS011;2936;47.348;9.640;2023-05-10T06:07:08;2.00;;;1.90;;
5819;SDS011;2936;47.348;9.640;2023-05-10T06:09:35;3.25;;;2.17;;
5819;SDS011;2936;47.348;9.640;2023-05-10T06:12:03;1.93;;;1.83;;
5819;SDS011;2936;47.348;9.640;2023-05-10T06:14:30;2.10;;;2.03;;
5819;SDS011;2936;47.348;9.640;2023-05-10T06:16:58;2.30;;;1.90;;
5819;SDS011;2936;47.348;9.640;2023-05-10T06:19:29;2.20;;;2.10;;
5819;SDS011;2936;47.348;9.640;2023-05-10T06:21:58;1.77;;;1.73;;
5819;SDS011;2936;47.348;9.640;2023-05-10T06:24:27;2.30;;;2.10;;
5819;SDS011;2936;47.348;9.640;2023-05-10T06:26:55;2.20;;;2.10;;
5819;SDS011;2936;47.348;9.640;2023-05-10T06:29:25;2.20;;;1.90;;
5819;SDS011;2936;47.348;9.640;2023-05-10T06:31:55;5.22;;;3.10;;
5819;SDS011;2936;47.348;9.640;2023-05-10T06:34:24;6.15;;;2.80;;
5819;SDS011;2936;47.348;9.640;2023-05-10T06:36:52;2.60;;;2.20;;
5819;SDS011;2936;47.348;9.640;2023-05-10T06:39:21;3.33;;;2.00;;
5819;SDS011;2936;47.348;9.640;2023-05-10T06:41:48;3.00;;;2.70;;
5819;SDS011;2936;47.348;9.640;2023-05-10T06:44:16;2.53;;;1.80;;
5819;SDS011;2936;47.348;9.640;2023-05-10T06:46:43;4.10;;;2.17;;
5819;SDS011;2936;47.348;9.640;2023-05-10T06:49:11;2.33;;;2.22;;
5819;SDS011;2936;47.348;9.640;2023-05-10T06:51:38;3.50;;;2.95;;
5819;SDS011;2936;47.348;9.640;2023-05-10T06:54:06;3.33;;;2.63;;
5819;SDS011;2936;47.348;9.640;2023-05-10T06:56:35;2.83;;;2.42;;
5819;SDS011;2936;47.348;9.640;2023-05-10T06:59:02;3.95;;;2.78;;
5819;SDS011;2936;47.348;9.640;2023-05-10T07:01:30;2.50;;;2.30;;
5819;SDS011;2936;47.348;9.640;2023-05-10T07:03:57;3.17;;;2.13;;
5819;SDS011;2936;47.348;9.640;2023-05-10T07:06:25;2.08;;;1.98;;
5819;SDS011;2936;47.348;9.640;2023-05-10T07:08:55;2.13;;;2.03;;
5819;SDS011;2936;47.348;9.640;2023-05-10T07:11:23;7.80;;;2.13;;
5819;SDS011;2936;47.348;9.640;2023-05-10T07:13:53;2.10;;;2.00;;
5819;SDS011;2936;47.348;9.640;2023-05-10T07:16:22;4.53;;;2.07;;
5819;SDS011;2936;47.348;9.640;2023-05-10T07:18:49;1.90;;;1.80;;
5819;SDS011;2936;47.348;9.640;2023-05-10T07:21:18;2.90;;;2.70;;
5819;SDS011;2936;47.348;9.640;2023-05-10T07:23:46;4.68;;;2.85;;
5819;SDS011;2936;47.348;9.640;2023-05-10T07:26:13;4.15;;;2.38;;
5819;SDS011;2936;47.348;9.640;2023-05-10T07:28:40;4.47;;;2.60;;
5819;SDS011;2936;47.348;9.640;2023-05-10T07:31:10;3.15;;;2.85;;
5819;SDS011;2936;47.348;9.640;2023-05-10T07:33:37;3.45;;;3.00;;
5819;SDS011;2936;47.348;9.640;2023-05-10T07:36:05;6.55;;;3.50;;
5819;SDS011;2936;47.348;9.640;2023-05-10T07:38:32;6.60;;;3.50;;
5819;SDS011;2936;47.348;9.640;2023-05-10T07:41:00;3.92;;;3.35;;
5819;SDS011;2936;47.348;9.640;2023-05-10T07:43:28;4.18;;;2.90;;
5819;SDS011;2936;47.348;9.640;2023-05-10T07:45:55;4.40;;;3.30;;
5819;SDS011;2936;47.348;9.640;2023-05-10T07:48:26;2.20;;;2.00;;
5819;SDS011;2936;47.348;9.640;2023-05-10T07:50:53;2.58;;;2.47;;
5819;SDS011;2936;47.348;9.640;2023-05-10T07:53:24;2.45;;;2.25;;
5819;SDS011;2936;47.348;9.640;2023-05-10T07:55:52;2.70;;;2.20;;
5819;SDS011;2936;47.348;9.640;2023-05-10T07:58:21;2.30;;;2.20;;
5819;SDS011;2936;47.348;9.640;2023-05-10T08:00:48;2.78;;;1.85;;
5819;SDS011;2936;47.348;9.640;2023-05-10T08:03:16;3.72;;;2.00;;
5819;SDS011;2936;47.348;9.640;2023-05-10T08:05:45;1.88;;;1.77;;
5819;SDS011;2936;47.348;9.640;2023-05-10T08:08:12;2.47;;;2.28;;
5819;SDS011;2936;47.348;9.640;2023-05-10T08:10:40;2.13;;;1.95;;
5819;SDS011;2936;47.348;9.640;2023-05-10T08:13:07;2.05;;;1.95;;
5819;SDS011;2936;47.348;9.640;2023-05-10T08:15:35;5.65;;;2.15;;
5819;SDS011;2936;47.348;9.640;2023-05-10T08:18:03;2.28;;;2.08;;
5819;SDS011;2936;47.348;9.640;2023-05-10T08:20:30;2.10;;;2.00;;
5819;SDS011;2936;47.348;9.640;2023-05-10T08:23:00;1.92;;;1.83;;
5819;SDS011;2936;47.348;9.640;2023-05-10T08:25:27;1.90;;;1.80;;
5819;SDS011;2936;47.348;9.640;2023-05-10T08:27:55;1.90;;;1.80;;
5819;SDS011;2936;47.348;9.640;2023-05-10T08:30:22;2.05;;;1.85;;
5819;SDS011;2936;47.348;9.640;2023-05-10T08:32:50;2.35;;;2.15;;
5819;SDS011;2936;47.348;9.640;2023-05-10T08:35:17;1.63;;;1.50;;
5819;SDS011;2936;47.348;9.640;2023-05-10T08:37:45;1.80;;;1.70;;
5819;SDS011;2936;47.348;9.640;2023-05-10T08:40:16;5.70;;;2.22;;
5819;SDS011;2936;47.348;9.640;2023-05-10T08:42:47;1.85;;;1.75;;
5819;SDS011;2936;47.348;9.640;2023-05-10T08:45:18;1.58;;;1.52;;
5819;SDS011;2936;47.348;9.640;2023-05-10T08:47:46;2.20;;;2.10;;
5819;SDS011;2936;47.348;9.640;2023-05-10T08:50:14;4.53;;;2.50;;
5819;SDS011;2936;47.348;9.640;2023-05-10T08:52:42;3.38;;;2.50;;
5819;SDS011;2936;47.348;9.640;2023-05-10T08:55:09;5.25;;;2.10;;
5819;SDS011;2936;47.348;9.640;2023-05-10T08:57:38;2.38;;;2.28;;
5819;SDS011;2936;47.348;9.640;2023-05-10T09:00:06;2.13;;;1.90;;
5819;SDS011;2936;47.348;9.640;2023-05-10T09:02:35;2.85;;;1.85;;
5819;SDS011;2936;47.348;9.640;2023-05-10T09:05:04;1.90;;;1.80;;
5819;SDS011;2936;47.348;9.640;2023-05-10T09:07:32;2.55;;;1.70;;
5819;SDS011;2936;47.348;9.640;2023-05-10T09:09:59;2.13;;;2.03;;
5819;SDS011;2936;47.348;9.640;2023-05-10T09:12:27;4.43;;;2.00;;
5819;SDS011;2936;47.348;9.640;2023-05-10T09:14:57;4.68;;;2.50;;
5819;SDS011;2936;47.348;9.640;2023-05-10T09:17:26;3.08;;;2.33;;
5819;SDS011;2936;47.348;9.640;2023-05-10T09:19:57;4.15;;;1.67;;
5819;SDS011;2936;47.348;9.640;2023-05-10T09:22:25;2.85;;;2.10;;
5819;SDS011;2936;47.348;9.640;2023-05-10T09:25:03;1.92;;;1.83;;
5819;SDS011;2936;47.348;9.640;2023-05-10T09:27:31;7.63;;;1.80;;
5819;SDS011;2936;47.348;9.640;2023-05-10T09:30:04;2.33;;;2.10;;
5819;SDS011;2936;47.348;9.640;2023-05-10T09:32:38;2.83;;;2.28;;
5819;SDS011;2936;47.348;9.640;2023-05-10T09:35:07;2.28;;;1.85;;
5819;SDS011;2936;47.348;9.640;2023-05-10T09:37:34;2.20;;;2.10;;
5819;SDS011;2936;47.348;9.640;2023-05-10T09:40:04;1.58;;;1.52;;
5819;SDS011;2936;47.348;9.640;2023-05-10T09:42:33;1.60;;;1.60;;
5819;SDS011;2936;47.348;9.640;2023-05-10T09:45:01;16.25;;;2.00;;
5819;SDS011;2936;47.348;9.640;2023-05-10T09:47:31;2.65;;;2.17;;
5819;SDS011;2936;47.348;9.640;2023-05-10T09:49:58;2.55;;;2.13;;
5819;SDS011;2936;47.348;9.640;2023-05-10T09:52:30;1.60;;;1.60;;
5819;SDS011;2936;47.348;9.640;2023-05-10T09:55:00;1.63;;;1.53;;
5819;SDS011;2936;47.348;9.640;2023-05-10T09:57:39;7.53;;;1.90;;
5819;SDS011;2936;47.348;9.640;2023-05-10T10:00:07;5.95;;;2.00;;
5819;SDS011;2936;47.348;9.640;2023-05-10T10:02:36;1.80;;;1.70;;
5819;SDS011;2936;47.348;9.640;2023-05-10T10:05:05;2.67;;;1.60;;
5819;SDS011;2936;47.348;9.640;2023-05-10T10:07:33;1.90;;;1.80;;
5819;SDS011;2936;47.348;9.640;2023-05-10T10:10:01;2.00;;;1.90;;
5819;SDS011;2936;47.348;9.640;2023-05-10T10:12:30;2.25;;;2.15;;
5819;SDS011;2936;47.348;9.640;2023-05-10T10:14:58;2.00;;;1.90;;
5819;SDS011;2936;47.348;9.640;2023-05-10T10:17:26;1.80;;;1.70;;
5819;SDS011;2936;47.348;9.640;2023-05-10T10:19:56;2.20;;;2.10;;
5819;SDS011;2936;47.348;9.640;2023-05-10T10:22:24;7.25;;;2.00;;
5819;SDS011;2936;47.348;9.640;2023-05-10T10:24:52;2.40;;;2.30;;
5819;SDS011;2936;47.348;9.640;2023-05-10T10:27:21;2.60;;;2.40;;
5819;SDS011;2936;47.348;9.640;2023-05-10T10:29:58;2.10;;;2.00;;
5819;SDS011;2936;47.348;9.640;2023-05-10T10:32:29;2.15;;;2.00;;
5819;SDS011;2936;47.348;9.640;2023-05-10T10:35:02;2.22;;;2.08;;
5819;SDS011;2936;47.348;9.640;2023-05-10T10:37:45;2.00;;;1.90;;
5819;SDS011;2936;47.348;9.640;2023-05-10T10:40:28;2.00;;;1.90;;
5819;SDS011;2936;47.348;9.640;2023-05-10T10:42:56;1.90;;;1.80;;
5819;SDS011;2936;47.348;9.640;2023-05-10T10:45:24;2.40;;;2.27;;
5819;SDS011;2936;47.348;9.640;2023-05-10T10:50:57;1.95;;;1.80;;
5819;SDS011;2936;47.348;9.640;2023-05-10T10:53:25;2.10;;;1.70;;
5819;SDS011;2936;47.348;9.640;2023-05-10T10:56:02;2.55;;;1.98;;
5819;SDS011;2936;47.348;9.640;2023-05-10T10:58:32;2.63;;;1.80;;
5819;SDS011;2936;47.348;9.640;2023-05-10T11:01:10;1.88;;;1.77;;
5819;SDS011;2936;47.348;9.640;2023-05-10T11:03:38;3.20;;;2.20;;
5819;SDS011;2936;47.348;9.640;2023-05-10T11:06:07;2.00;;;1.90;;
5819;SDS011;2936;47.348;9.640;2023-05-10T11:08:39;2.00;;;1.80;;
5819;SDS011;2936;47.348;9.640;2023-05-10T11:11:09;2.10;;;2.00;;
5819;SDS011;2936;47.348;9.640;2023-05-10T11:13:40;2.77;;;2.00;;
5819;SDS011;2936;47.348;9.640;2023-05-10T11:16:12;1.95;;;1.80;;
5819;SDS011;2936;47.348;9.640;2023-05-10T11:18:40;2.00;;;1.90;;
5819;SDS011;2936;47.348;9.640;2023-05-10T11:21:09;4.37;;;2.20;;
5819;SDS011;2936;47.348;9.640;2023-05-10T11:23:49;2.00;;;1.97;;
5819;SDS011;2936;47.348;9.640;2023-05-10T11:26:19;1.92;;;1.83;;
5819;SDS011;2936;47.348;9.640;2023-05-10T11:28:50;2.03;;;1.92;;
5819;SDS011;2936;47.348;9.640;2023-05-10T11:31:20;4.95;;;1.60;;
5819;SDS011;2936;47.348;9.640;2023-05-10T11:33:48;2.03;;;1.93;;
5819;SDS011;2936;47.348;9.640;2023-05-10T11:36:18;2.00;;;1.80;;
5819;SDS011;2936;47.348;9.640;2023-05-10T11:38:46;11.77;;;3.70;;
5819;SDS011;2936;47.348;9.640;2023-05-10T11:41:15;1.93;;;1.83;;
5819;SDS011;2936;47.348;9.640;2023-05-10T11:43:43;7.63;;;2.08;;
5819;SDS011;2936;47.348;9.640;2023-05-10T11:46:25;1.70;;;1.60;;
5819;SDS011;2936;47.348;9.640;2023-05-10T11:48:57;2.70;;;2.00;;
5819;SDS011;2936;47.348;9.640;2023-05-10T11:51:27;2.40;;;1.60;;
5819;SDS011;2936;47.348;9.640;2023-05-10T11:53:55;2.97;;;2.00;;
5819;SDS011;2936;47.348;9.640;2023-05-10T11:56:23;2.50;;;1.47;;
5819;SDS011;2936;47.348;9.640;2023-05-10T11:58:53;1.60;;;1.60;;
5819;SDS011;2936;47.348;9.640;2023-05-10T12:01:21;2.27;;;1.97;;
5819;SDS011;2936;47.348;9.640;2023-05-10T12:03:49;1.73;;;1.63;;
5819;SDS011;2936;47.348;9.640;2023-05-10T12:06:17;1.58;;;1.58;;
5819;SDS011;2936;47.348;9.640;2023-05-10T12:08:47;1.67;;;1.58;;
5819;SDS011;2936;47.348;9.640;2023-05-10T12:11:17;1.77;;;1.67;;
5819;SDS011;2936;47.348;9.640;2023-05-10T12:13:46;2.25;;;1.92;;
5819;SDS011;2936;47.348;9.640;2023-05-10T12:16:18;1.87;;;1.63;;
5819;SDS011;2936;47.348;9.640;2023-05-10T12:18:47;4.55;;;1.70;;
5819;SDS011;2936;47.348;9.640;2023-05-10T12:21:16;1.90;;;1.80;;
5819;SDS011;2936;47.348;9.640;2023-05-10T12:23:44;1.50;;;1.50;;
5819;SDS011;2936;47.348;9.640;2023-05-10T12:26:14;1.90;;;1.80;;
5819;SDS011;2936;47.348;9.640;2023-05-10T12:28:42;2.30;;;1.70;;
5819;SDS011;2936;47.348;9.640;2023-05-10T12:31:10;1.83;;;1.73;;
5819;SDS011;2936;47.348;9.640;2023-05-10T12:33:37;2.00;;;1.90;;
5819;SDS011;2936;47.348;9.640;2023-05-10T12:36:07;1.50;;;1.50;;
5819;SDS011;2936;47.348;9.640;2023-05-10T12:38:35;2.10;;;1.90;;
5819;SDS011;2936;47.348;9.640;2023-05-10T12:41:08;5.18;;;1.60;;
5819;SDS011;2936;47.348;9.640;2023-05-10T12:43:38;2.45;;;1.80;;
5819;SDS011;2936;47.348;9.640;2023-05-10T12:46:06;3.70;;;1.90;;
5819;SDS011;2936;47.348;9.640;2023-05-10T12:48:40;2.30;;;2.17;;
5819;SDS011;2936;47.348;9.640;2023-05-10T12:51:11;1.80;;;1.70;;
5819;SDS011;2936;47.348;9.640;2023-05-10T12:53:42;1.60;;;1.60;;
5819;SDS011;2936;47.348;9.640;2023-05-10T12:56:13;5.60;;;1.90;;
5819;SDS011;2936;47.348;9.640;2023-05-10T12:58:44;1.83;;;1.70;;
5819;SDS011;2936;47.348;9.640;2023-05-10T13:01:13;1.98;;;1.88;;
5819;SDS011;2936;47.348;9.640;2023-05-10T13:03:41;2.13;;;1.93;;
5819;SDS011;2936;47.348;9.640;2023-05-10T13:06:08;2.70;;;2.53;;
5819;SDS011;2936;47.348;9.640;2023-05-10T13:08:36;7.57;;;1.92;;
5819;SDS011;2936;47.348;9.640;2023-05-10T13:11:05;2.17;;;1.97;;
5819;SDS011;2936;47.348;9.640;2023-05-10T13:13:32;5.60;;;2.00;;
5819;SDS011;2936;47.348;9.640;2023-05-10T13:16:01;1.98;;;1.88;;
5819;SDS011;2936;47.348;9.640;2023-05-10T13:18:29;2.30;;;2.10;;
5819;SDS011;2936;47.348;9.640;2023-05-10T13:20:57;2.60;;;1.90;;
5819;SDS011;2936;47.348;9.640;2023-05-10T13:23:36;2.97;;;1.97;;
5819;SDS011;2936;47.348;9.640;2023-05-10T13:26:03;2.20;;;2.10;;
5819;SDS011;2936;47.348;9.640;2023-05-10T13:28:31;1.77;;;1.67;;
5819;SDS011;2936;47.348;9.640;2023-05-10T13:30:58;3.57;;;1.97;;
5819;SDS011;2936;47.348;9.640;2023-05-10T13:33:27;2.60;;;1.87;;
5819;SDS011;2936;47.348;9.640;2023-05-10T13:35:55;1.80;;;1.70;;
5819;SDS011;2936;47.348;9.640;2023-05-10T13:38:39;3.58;;;1.83;;
5819;SDS011;2936;47.348;9.640;2023-05-10T13:41:07;3.63;;;1.80;;
5819;SDS011;2936;47.348;9.640;2023-05-10T13:43:34;1.87;;;1.67;;
5819;SDS011;2936;47.348;9.640;2023-05-10T13:46:02;3.43;;;2.10;;
5819;SDS011;2936;47.348;9.640;2023-05-10T13:48:31;2.70;;;1.80;;
5819;SDS011;2936;47.348;9.640;2023-05-10T13:50:59;6.83;;;1.90;;
5819;SDS011;2936;47.348;9.640;2023-05-10T13:53:34;4.05;;;2.00;;
5819;SDS011;2936;47.348;9.640;2023-05-10T13:56:01;3.23;;;2.97;;
5819;SDS011;2936;47.348;9.640;2023-05-10T13:58:29;1.90;;;1.80;;
5819;SDS011;2936;47.348;9.640;2023-05-10T14:01:11;4.10;;;1.63;;
5819;SDS011;2936;47.348;9.640;2023-05-10T14:03:41;2.38;;;1.92;;
5819;SDS011;2936;47.348;9.640;2023-05-10T14:06:11;1.80;;;1.70;;
5819;SDS011;2936;47.348;9.640;2023-05-10T14:08:38;1.97;;;1.87;;
5819;SDS011;2936;47.348;9.640;2023-05-10T14:11:06;1.80;;;1.70;;
5819;SDS011;2936;47.348;9.640;2023-05-10T14:13:33;2.70;;;2.60;;
5819;SDS011;2936;47.348;9.640;2023-05-10T14:16:01;2.20;;;1.93;;
5819;SDS011;2936;47.348;9.640;2023-05-10T14:18:29;2.13;;;1.87;;
5819;SDS011;2936;47.348;9.640;2023-05-10T14:20:58;3.03;;;2.40;;
5819;SDS011;2936;47.348;9.640;2023-05-10T14:23:25;2.10;;;1.90;;
5819;SDS011;2936;47.348;9.640;2023-05-10T14:25:53;4.10;;;2.20;;
5819;SDS011;2936;47.348;9.640;2023-05-10T14:28:21;1.93;;;1.80;;
5819;SDS011;2936;47.348;9.640;2023-05-10T14:30:50;6.40;;;2.17;;
5819;SDS011;2936;47.348;9.640;2023-05-10T14:33:18;2.13;;;2.03;;
5819;SDS011;2936;47.348;9.640;2023-05-10T14:35:45;2.30;;;2.20;;
5819;SDS011;2936;47.348;9.640;2023-05-10T14:38:18;5.37;;;2.40;;
5819;SDS011;2936;47.348;9.640;2023-05-10T14:40:49;2.50;;;2.40;;
5819;SDS011;2936;47.348;9.640;2023-05-10T14:43:18;6.33;;;3.50;;
5819;SDS011;2936;47.348;9.640;2023-05-10T14:45:55;5.30;;;3.70;;
5819;SDS011;2936;47.348;9.640;2023-05-10T14:48:23;2.90;;;2.70;;
5819;SDS011;2936;47.348;9.640;2023-05-10T14:50:50;2.53;;;2.43;;
5819;SDS011;2936;47.348;9.640;2023-05-10T14:53:19;2.37;;;2.00;;
5819;SDS011;2936;47.348;9.640;2023-05-10T14:55:47;3.43;;;2.40;;
5819;SDS011;2936;47.348;9.640;2023-05-10T14:58:14;2.55;;;2.35;;
5819;SDS011;2936;47.348;9.640;2023-05-10T15:00:42;6.07;;;2.40;;
5819;SDS011;2936;47.348;9.640;2023-05-10T15:03:09;2.70;;;2.60;;
5819;SDS011;2936;47.348;9.640;2023-05-10T15:05:37;2.90;;;2.70;;
5819;SDS011;2936;47.348;9.640;2023-05-10T15:08:04;3.07;;;2.10;;
5819;SDS011;2936;47.348;9.640;2023-05-10T15:10:33;2.50;;;2.30;;
5819;SDS011;2936;47.348;9.640;2023-05-10T15:13:03;2.83;;;2.65;;
5819;SDS011;2936;47.348;9.640;2023-05-10T15:15:30;2.40;;;2.30;;
5819;SDS011;2936;47.348;9.640;2023-05-10T15:17:58;3.20;;;2.90;;
5819;SDS011;2936;47.348;9.640;2023-05-10T15:20:25;2.20;;;2.10;;
5819;SDS011;2936;47.348;9.640;2023-05-10T15:22:56;4.10;;;2.80;;
5819;SDS011;2936;47.348;9.640;2023-05-10T15:25:23;2.47;;;2.20;;
5819;SDS011;2936;47.348;9.640;2023-05-10T15:27:52;6.95;;;2.60;;
5819;SDS011;2936;47.348;9.640;2023-05-10T15:30:20;2.45;;;2.30;;
5819;SDS011;2936;47.348;9.640;2023-05-10T15:32:47;3.22;;;2.92;;
5819;SDS011;2936;47.348;9.640;2023-05-10T15:35:15;2.03;;;1.83;;
5819;SDS011;2936;47.348;9.640;2023-05-10T15:37:42;2.90;;;2.40;;
5819;SDS011;2936;47.348;9.640;2023-05-10T15:40:10;9.23;;;2.40;;
5819;SDS011;2936;47.348;9.640;2023-05-10T15:42:38;4.13;;;2.63;;
5819;SDS011;2936;47.348;9.640;2023-05-10T15:45:07;2.28;;;2.10;;
5819;SDS011;2936;47.348;9.640;2023-05-10T15:47:35;2.20;;;2.10;;
5819;SDS011;2936;47.348;9.640;2023-05-10T15:50:05;2.40;;;2.20;;
5819;SDS011;2936;47.348;9.640;2023-05-10T15:52:32;2.50;;;2.40;;
5819;SDS011;2936;47.348;9.640;2023-05-10T15:55:00;2.40;;;2.20;;
5819;SDS011;2936;47.348;9.640;2023-05-10T15:57:28;2.50;;;2.30;;
5819;SDS011;2936;47.348;9.640;2023-05-10T15:59:55;2.47;;;2.38;;